Terminal Aerodrome Forecast
Issued by NWS

Home | Current Version | Previous Version | Text Only | Print | Product List | Glossary On
Versions: 1 2 3 4 5 6 7 8 9 10 11 12 13 14 15 16 17 18 19 20 21 22 23 24 25 26 27 28
000
FTUS46 KMTR 021127
TAFSFO
TAF
KSFO 021127Z 0212/0318 25010KT P6SM OVC015
     FM021700 25006KT P6SM SCT020 BKN250
     FM021900 27010KT P6SM FEW015 BKN250
     FM022100 27020G27KT P6SM FEW015 SCT250
     FM030400 29015G22KT P6SM SCT015
     FM030600 29012KT P6SM BKN015=

USA.gov is the U.S. government's official web portal to all federal, state and local government web resources and services.